createdAt,value
2018-09-10T00:02:10.209Z,20.30
2018-09-10T00:04:38.699Z,20.30
2018-09-10T00:07:07.523Z,20.30
2018-09-10T00:09:36.044Z,20.30
2018-09-10T00:12:04.547Z,20.30
2018-09-10T00:14:33.055Z,20.30
2018-09-10T00:17:01.575Z,20.20
2018-09-10T00:19:30.079Z,20.20
2018-09-10T00:21:58.587Z,20.20
2018-09-10T00:24:27.101Z,20.20
2018-09-10T00:26:55.599Z,20.20
2018-09-10T00:29:24.091Z,20.20
2018-09-10T00:31:52.587Z,20.20
2018-09-10T00:34:21.522Z,20.20
2018-09-10T00:36:50.199Z,20.20
2018-09-10T00:39:18.755Z,20.20
2018-09-10T00:41:47.267Z,20.20
2018-09-10T00:44:15.764Z,20.20
2018-09-10T00:46:44.263Z,20.20
2018-09-10T00:49:12.775Z,20.20
2018-09-10T00:51:41.279Z,20.10
2018-09-10T00:54:09.995Z,20.10
2018-09-10T00:56:38.816Z,20.20
2018-09-10T00:59:07.311Z,20.10
2018-09-10T01:01:35.803Z,20.10
2018-09-10T01:04:04.311Z,20.10
2018-09-10T01:06:32.814Z,20.10
2018-09-10T01:09:01.331Z,20.10
2018-09-10T01:11:29.823Z,20.10
2018-09-10T01:13:58.683Z,20.10
2018-09-10T01:16:27.198Z,20.10
2018-09-10T01:18:55.691Z,20.00
2018-09-10T01:21:24.187Z,20.10
2018-09-10T01:23:52.678Z,20.00
2018-09-10T01:26:21.200Z,20.00
2018-09-10T01:28:49.706Z,20.00
2018-09-10T01:31:18.555Z,20.00
2018-09-10T01:33:52.207Z,20.00
2018-09-10T01:36:20.708Z,20.00
2018-09-10T01:38:49.206Z,20.00
2018-09-10T01:41:17.735Z,20.00
2018-09-10T01:43:46.235Z,20.00
2018-09-10T01:46:14.731Z,20.00
2018-09-10T01:48:43.243Z,19.90
2018-09-10T01:51:11.732Z,19.90
2018-09-10T01:53:40.247Z,20.00
2018-09-10T01:56:08.759Z,20.00
2018-09-10T01:58:37.249Z,20.00
2018-09-10T02:01:05.748Z,19.90
2018-09-10T02:03:34.252Z,19.90
2018-09-10T02:06:02.764Z,19.90
2018-09-10T02:08:31.255Z,19.90
2018-09-10T02:10:59.747Z,19.90
2018-09-10T02:13:28.250Z,19.90
2018-09-10T02:15:56.748Z,19.90
2018-09-10T02:18:25.278Z,19.90
2018-09-10T02:20:53.767Z,19.90
2018-09-10T02:23:22.260Z,19.90
2018-09-10T02:25:50.766Z,19.80
2018-09-10T02:28:19.270Z,19.80
2018-09-10T02:30:47.772Z,19.80
2018-09-10T02:33:16.271Z,19.80
2018-09-10T02:35:44.770Z,19.80
2018-09-10T02:38:13.266Z,19.80
2018-09-10T02:40:41.772Z,19.80
2018-09-10T02:43:10.327Z,19.80
2018-09-10T02:45:38.824Z,19.80
2018-09-10T02:48:07.329Z,19.80
2018-09-10T02:50:35.823Z,19.80
2018-09-10T02:53:04.323Z,19.80
2018-09-10T02:55:32.819Z,19.80
2018-09-10T02:58:01.635Z,19.80
2018-09-10T03:00:30.139Z,19.70
2018-09-10T03:02:58.639Z,19.80
2018-09-10T03:05:27.131Z,19.70
2018-09-10T03:08:09.960Z,19.80
2018-09-10T03:10:38.453Z,19.70
2018-09-10T03:13:06.967Z,19.70
2018-09-10T03:15:35.527Z,19.70
2018-09-10T03:18:04.085Z,19.70
2018-09-10T03:20:32.707Z,19.70
2018-09-10T03:23:01.227Z,19.70
2018-09-10T03:25:29.736Z,19.70
2018-09-10T03:27:58.237Z,19.70
2018-09-10T03:30:26.743Z,19.70
2018-09-10T03:32:55.231Z,19.60
2018-09-10T03:35:23.742Z,19.70
2018-09-10T03:37:52.243Z,19.60
2018-09-10T03:40:20.759Z,19.70
2018-09-10T03:42:49.260Z,19.70
2018-09-10T03:45:17.764Z,19.60
2018-09-10T03:47:46.275Z,19.70
2018-09-10T03:50:14.783Z,19.60
2018-09-10T03:52:43.276Z,19.60
2018-09-10T03:55:11.779Z,19.60
2018-09-10T03:57:40.264Z,19.60
2018-09-10T04:00:08.767Z,19.60
2018-09-10T04:02:37.269Z,19.60
2018-09-10T04:05:06.528Z,19.60
2018-09-10T04:07:35.036Z,19.60
2018-09-10T04:10:03.534Z,19.60
2018-09-10T04:12:32.032Z,19.60
2018-09-10T04:15:00.587Z,19.60
2018-09-10T04:17:29.080Z,19.60
2018-09-10T04:20:01.779Z,19.60
2018-09-10T04:22:30.263Z,19.60
2018-09-10T04:24:58.771Z,19.60
2018-09-10T04:27:27.267Z,19.60
2018-09-10T04:29:55.764Z,19.60
2018-09-10T04:32:24.304Z,19.60
2018-09-10T04:37:27.934Z,19.60
2018-09-10T04:39:56.423Z,19.60
2018-09-10T04:42:25.393Z,19.60
2018-09-10T04:44:53.843Z,19.60
2018-09-10T04:47:22.360Z,19.60
2018-09-10T04:49:50.915Z,19.60
2018-09-10T04:52:19.376Z,19.60
2018-09-10T04:54:47.883Z,19.60
2018-09-10T04:57:16.372Z,19.60
2018-09-10T04:59:45.287Z,19.60
2018-09-10T05:02:13.775Z,19.60
2018-09-10T05:04:42.284Z,19.70
2018-09-10T05:07:10.783Z,19.70
2018-09-10T05:09:39.471Z,19.70
2018-09-10T05:12:07.969Z,19.60
2018-09-10T05:14:36.479Z,19.70
2018-09-10T05:17:04.984Z,19.70
2018-09-10T05:19:34.396Z,19.70
2018-09-10T05:22:02.967Z,19.70
2018-09-10T05:24:31.472Z,19.80
2018-09-10T05:26:59.972Z,19.80
2018-09-10T05:29:28.471Z,19.80
2018-09-10T05:31:56.976Z,19.90
2018-09-10T05:34:25.516Z,19.90
2018-09-10T05:36:53.980Z,19.90
2018-09-10T05:39:22.499Z,20.00
2018-09-10T05:41:51.059Z,20.00
2018-09-10T05:44:19.584Z,20.00
2018-09-10T05:46:48.095Z,20.10
2018-09-10T05:49:16.588Z,20.10
2018-09-10T05:51:45.089Z,20.20
2018-09-10T05:54:13.605Z,20.20
2018-09-10T05:56:42.100Z,20.20
2018-09-10T05:59:10.594Z,20.20
2018-09-10T06:01:39.131Z,20.30
2018-09-10T06:04:07.647Z,20.30
2018-09-10T06:06:36.179Z,20.40
2018-09-10T06:09:06.512Z,20.50
2018-09-10T06:11:35.015Z,20.50
2018-09-10T06:14:04.007Z,20.60
2018-09-10T06:16:32.513Z,20.70
2018-09-10T06:19:01.376Z,20.70
2018-09-10T06:21:29.872Z,20.70
2018-09-10T06:23:59.695Z,20.80
2018-09-10T06:26:28.219Z,20.80
2018-09-10T06:28:56.778Z,20.90
2018-09-10T06:31:25.640Z,21.00
2018-09-10T06:33:55.560Z,21.00
2018-09-10T06:36:24.634Z,21.10
2018-09-10T06:38:53.132Z,21.20
2018-09-10T06:41:21.644Z,21.50
2018-09-10T06:43:50.136Z,21.60
2018-09-10T06:46:18.633Z,21.80
2018-09-10T06:48:47.123Z,21.90
2018-09-10T06:51:15.631Z,22.00
2018-09-10T06:53:44.144Z,22.20
2018-09-10T06:56:12.652Z,22.30
2018-09-10T06:58:41.173Z,22.40
2018-09-10T07:01:09.668Z,22.60
2018-09-10T07:03:38.173Z,22.70
2018-09-10T07:06:06.888Z,22.80
2018-09-10T07:08:35.455Z,22.90
2018-09-10T07:11:03.947Z,23.00
2018-09-10T07:13:32.440Z,23.20
2018-09-10T07:16:00.936Z,23.20
2018-09-10T07:18:29.510Z,23.40
2018-09-10T07:20:57.988Z,23.50
2018-09-10T07:23:26.483Z,23.60
2018-09-10T07:25:54.979Z,23.70
2018-09-10T07:28:23.472Z,23.80
2018-09-10T07:30:51.975Z,24.00
2018-09-10T07:33:20.471Z,24.20
2018-09-10T07:35:48.987Z,24.30
2018-09-10T07:38:17.481Z,24.40
2018-09-10T07:40:45.999Z,24.60
2018-09-10T07:43:14.500Z,24.80
2018-09-10T07:45:43.019Z,24.90
2018-09-10T07:48:11.521Z,25.10
2018-09-10T07:50:40.017Z,25.30
2018-09-10T07:53:08.525Z,25.40
2018-09-10T07:55:37.040Z,25.50
2018-09-10T07:58:06.020Z,25.60
2018-09-10T08:00:34.519Z,25.70
2018-09-10T08:03:03.493Z,25.80
2018-09-10T08:05:32.247Z,25.90
2018-09-10T08:08:00.756Z,26.00
2018-09-10T08:10:29.253Z,26.10
2018-09-10T08:12:57.760Z,26.10
2018-09-10T08:15:26.258Z,26.10
2018-09-10T08:17:54.757Z,26.10
2018-09-10T08:20:23.263Z,26.10
2018-09-10T08:22:51.751Z,26.10
2018-09-10T08:25:20.243Z,26.10
2018-09-10T08:27:48.739Z,26.10
2018-09-10T08:30:17.253Z,26.00
2018-09-10T08:32:45.739Z,26.00
2018-09-10T08:35:14.341Z,26.00
2018-09-10T08:37:42.907Z,26.00
2018-09-10T08:40:11.860Z,26.00
2018-09-10T08:42:40.374Z,26.00
2018-09-10T08:45:08.864Z,25.90
2018-09-10T08:47:37.364Z,25.90
2018-09-10T08:50:06.843Z,25.80
2018-09-10T08:52:35.351Z,25.80
2018-09-10T08:55:04.191Z,25.80
2018-09-10T08:57:32.525Z,25.70
2018-09-10T09:00:01.015Z,25.60
2018-09-10T09:02:29.511Z,25.50
2018-09-10T09:04:58.008Z,25.50
2018-09-10T09:07:26.507Z,25.30
2018-09-10T09:09:55.000Z,25.30
2018-09-10T09:12:23.495Z,25.10
2018-09-10T09:14:52.004Z,25.10
2018-09-10T09:17:20.544Z,25.00
2018-09-10T09:19:49.028Z,24.90
2018-09-10T09:22:17.534Z,24.80
2018-09-10T09:24:46.036Z,24.80
2018-09-10T09:27:14.563Z,24.70
2018-09-10T09:29:43.119Z,24.70
2018-09-10T09:32:11.592Z,24.70
2018-09-10T09:34:45.454Z,24.70
2018-09-10T09:37:19.320Z,24.60
2018-09-10T09:39:53.087Z,24.60
2018-09-10T09:42:26.724Z,24.60
2018-09-10T09:45:00.342Z,24.60
2018-09-10T09:47:28.840Z,24.60
2018-09-10T09:49:57.343Z,24.60
2018-09-10T09:52:26.099Z,24.50
2018-09-10T09:54:54.607Z,24.50
2018-09-10T09:57:23.525Z,24.50
2018-09-10T09:59:52.051Z,24.50
2018-09-10T10:02:21.561Z,24.50
2018-09-10T10:04:50.079Z,24.40
2018-09-10T10:07:18.876Z,24.40
2018-09-10T10:09:47.383Z,24.40
2018-09-10T10:12:15.928Z,24.30
2018-09-10T10:14:44.395Z,24.30
2018-09-10T10:17:12.894Z,24.30
2018-09-10T10:19:41.388Z,24.20
2018-09-10T10:22:09.936Z,24.10
2018-09-10T10:24:38.399Z,24.10
2018-09-10T10:27:06.915Z,24.10
2018-09-10T10:29:35.417Z,24.00
2018-09-10T10:32:03.921Z,24.00
2018-09-10T10:34:32.421Z,24.00
2018-09-10T10:37:00.932Z,23.90
2018-09-10T10:39:29.428Z,23.90
2018-09-10T10:41:57.932Z,23.90
2018-09-10T10:44:26.436Z,23.90
2018-09-10T10:46:54.931Z,23.80
2018-09-10T10:49:23.443Z,23.80
2018-09-10T10:51:52.001Z,23.80
2018-09-10T10:54:20.512Z,23.80
2018-09-10T10:56:49.004Z,23.70
2018-09-10T10:59:17.879Z,23.70
2018-09-10T11:01:46.370Z,23.70
2018-09-10T11:04:14.921Z,23.70
2018-09-10T11:06:43.395Z,23.70
2018-09-10T11:09:11.896Z,23.70
2018-09-10T11:11:40.397Z,23.70
2018-09-10T11:14:08.907Z,23.70
2018-09-10T11:16:37.739Z,23.70
2018-09-10T11:19:06.207Z,23.70
2018-09-10T11:21:34.727Z,23.70
2018-09-10T11:24:03.231Z,23.70
2018-09-10T11:26:31.724Z,23.70
2018-09-10T11:29:00.218Z,23.70
2018-09-10T11:31:28.716Z,23.70
2018-09-10T11:33:57.232Z,23.60
2018-09-10T11:36:25.732Z,23.60
2018-09-10T11:38:54.235Z,23.60
2018-09-10T11:41:22.740Z,23.60
2018-09-10T11:43:51.647Z,23.60
2018-09-10T11:46:20.148Z,23.60
2018-09-10T11:48:49.143Z,23.60
2018-09-10T11:51:17.667Z,23.50
2018-09-10T11:53:46.171Z,23.60
2018-09-10T11:56:14.679Z,23.50
2018-09-10T11:58:43.198Z,23.50
2018-09-10T12:01:11.699Z,23.50
2018-09-10T12:03:40.203Z,23.50
2018-09-10T12:06:08.704Z,23.50
2018-09-10T12:08:37.391Z,23.50
2018-09-10T12:11:06.215Z,23.50
2018-09-10T12:13:34.734Z,23.50
2018-09-10T12:16:03.240Z,23.50
2018-09-10T12:18:31.743Z,23.50
2018-09-10T12:21:00.240Z,23.50
2018-09-10T12:23:28.740Z,23.50
2018-09-10T12:25:57.583Z,23.50
2018-09-10T12:28:26.082Z,23.50
2018-09-10T12:30:54.586Z,23.50
2018-09-10T12:33:23.104Z,23.50
2018-09-10T12:35:51.607Z,23.50
2018-09-10T12:38:20.118Z,23.40
2018-09-10T12:40:48.620Z,23.40
2018-09-10T12:43:17.136Z,23.40
2018-09-10T12:45:45.696Z,23.40
2018-09-10T12:48:14.229Z,23.40
2018-09-10T12:50:42.728Z,23.40
2018-09-10T12:53:11.227Z,23.40
2018-09-10T12:55:40.019Z,23.40
2018-09-10T12:58:08.519Z,23.40
2018-09-10T13:00:37.034Z,23.40
2018-09-10T13:03:05.582Z,23.40
2018-09-10T13:05:34.099Z,23.40
2018-09-10T13:08:02.664Z,23.40
2018-09-10T13:10:31.217Z,23.40
2018-09-10T13:12:59.678Z,23.40
2018-09-10T13:15:28.194Z,23.40
2018-09-10T13:17:56.687Z,23.40
2018-09-10T13:20:25.183Z,23.30
2018-09-10T13:22:53.684Z,23.30
2018-09-10T13:25:22.648Z,23.40
2018-09-10T13:27:51.148Z,23.40
2018-09-10T13:30:19.651Z,23.40
2018-09-10T13:32:48.154Z,23.40
2018-09-10T13:35:16.663Z,23.40
2018-09-10T13:37:45.171Z,23.40
2018-09-10T13:40:13.692Z,23.30
2018-09-10T13:42:42.198Z,23.30
2018-09-10T13:45:10.695Z,23.30
2018-09-10T13:47:39.215Z,23.30
2018-09-10T13:50:07.707Z,23.30
2018-09-10T13:52:36.780Z,23.30
2018-09-10T13:55:05.643Z,23.30
2018-09-10T13:57:34.144Z,23.30
2018-09-10T14:00:03.021Z,23.30
2018-09-10T14:02:31.516Z,23.30
2018-09-10T14:05:00.020Z,23.30
2018-09-10T14:07:28.759Z,23.30
2018-09-10T14:09:57.303Z,23.30
2018-09-10T14:12:25.812Z,23.20
2018-09-10T14:14:54.319Z,23.20
2018-09-10T14:17:22.819Z,23.20
2018-09-10T14:19:51.335Z,23.20
2018-09-10T14:22:19.831Z,23.20
2018-09-10T14:24:48.364Z,23.20
2018-09-10T14:27:16.939Z,23.20
2018-09-10T14:29:45.391Z,23.20
2018-09-10T14:32:13.920Z,23.20
2018-09-10T14:34:42.497Z,23.20
2018-09-10T14:37:10.992Z,23.20
2018-09-10T14:39:39.522Z,23.20
2018-09-10T14:42:08.508Z,23.20
2018-09-10T14:44:37.407Z,23.20
2018-09-10T14:47:06.261Z,23.20
2018-09-10T14:49:34.778Z,23.20
2018-09-10T14:52:03.284Z,23.20
2018-09-10T14:54:31.783Z,23.20
2018-09-10T14:57:00.288Z,23.20
2018-09-10T14:59:28.799Z,23.20
2018-09-10T15:01:57.298Z,23.10
2018-09-10T15:04:26.145Z,23.10
2018-09-10T15:06:54.654Z,23.10
2018-09-10T15:09:23.152Z,23.10
2018-09-10T15:11:51.645Z,23.10
2018-09-10T15:14:20.147Z,23.10
2018-09-10T15:16:48.884Z,23.10
2018-09-10T15:19:17.442Z,23.10
2018-09-10T15:21:45.899Z,23.10
2018-09-10T15:24:14.402Z,23.00
2018-09-10T15:26:42.903Z,23.00
2018-09-10T15:29:11.399Z,23.00
2018-09-10T15:32:42.764Z,23.00
2018-09-10T15:35:11.262Z,23.00
2018-09-10T15:37:39.799Z,23.00
2018-09-10T15:40:08.288Z,23.00
2018-09-10T15:42:36.783Z,22.90
2018-09-10T15:45:05.300Z,23.00
2018-09-10T15:47:33.820Z,22.90
2018-09-10T15:50:02.679Z,22.90
2018-09-10T15:52:31.626Z,22.90
2018-09-10T15:55:00.120Z,22.90
2018-09-10T15:57:28.639Z,22.90
2018-09-10T15:59:57.197Z,22.90
2018-09-10T16:02:25.648Z,22.90
2018-09-10T16:04:54.409Z,22.90
2018-09-10T16:07:22.993Z,22.90
2018-09-10T16:09:51.444Z,22.90
2018-09-10T16:12:19.956Z,22.90
2018-09-10T16:14:48.451Z,22.80
2018-09-10T16:17:16.943Z,22.80
2018-09-10T16:19:45.431Z,22.80
2018-09-10T16:22:13.935Z,22.70
2018-09-10T16:24:42.432Z,22.70
2018-09-10T16:27:10.928Z,22.70
2018-09-10T16:29:39.423Z,22.70
2018-09-10T16:32:07.931Z,22.70
2018-09-10T16:34:36.447Z,22.70
2018-09-10T16:37:04.947Z,22.70
2018-09-10T16:39:33.447Z,22.60
2018-09-10T16:42:01.968Z,22.60
2018-09-10T16:44:30.632Z,22.60
2018-09-10T16:46:59.130Z,22.60
2018-09-10T16:49:27.647Z,22.60
2018-09-10T16:51:56.150Z,22.60
2018-09-10T16:54:25.323Z,22.60
2018-09-10T16:56:53.791Z,22.60
2018-09-10T16:59:22.275Z,22.60
2018-09-10T17:01:50.772Z,22.50
2018-09-10T17:04:19.292Z,22.50
2018-09-10T17:06:47.810Z,22.50
2018-09-10T17:09:16.311Z,22.60
2018-09-10T17:11:44.876Z,22.50
2018-09-10T17:14:13.376Z,22.50
2018-09-10T17:16:41.895Z,22.50
2018-09-10T17:19:10.396Z,22.50
2018-09-10T17:21:38.898Z,22.50
2018-09-10T17:24:07.406Z,22.40
2018-09-10T17:26:35.939Z,22.40
2018-09-10T17:29:04.436Z,22.40
2018-09-10T17:31:32.947Z,22.30
2018-09-10T17:34:01.500Z,22.30
2018-09-10T17:36:30.011Z,22.30
2018-09-10T17:38:58.505Z,22.30
2018-09-10T17:41:27.010Z,22.20
2018-09-10T17:43:55.506Z,22.20
2018-09-10T17:46:24.023Z,22.10
2018-09-10T17:48:52.527Z,22.10
2018-09-10T17:51:21.032Z,22.10
2018-09-10T17:53:49.546Z,22.00
2018-09-10T17:56:18.043Z,22.10
2018-09-10T17:58:46.550Z,22.00
2018-09-10T18:01:15.068Z,22.00
2018-09-10T18:03:43.565Z,22.00
2018-09-10T18:06:12.073Z,22.00
2018-09-10T18:08:40.560Z,22.00
2018-09-10T18:11:09.060Z,22.00
2018-09-10T18:13:37.581Z,21.90
2018-09-10T18:16:06.088Z,21.90
2018-09-10T18:18:34.592Z,21.90
2018-09-10T18:21:03.088Z,21.90
2018-09-10T18:23:31.597Z,21.90
2018-09-10T18:26:00.102Z,21.90
2018-09-10T18:28:28.604Z,21.90
2018-09-10T18:30:57.103Z,21.90
2018-09-10T18:33:25.599Z,21.90
2018-09-10T18:35:54.107Z,21.90
2018-09-10T18:38:22.609Z,21.80
2018-09-10T18:40:51.115Z,21.80
2018-09-10T18:43:19.628Z,21.80
2018-09-10T18:45:48.135Z,21.80
2018-09-10T18:48:16.629Z,21.80
2018-09-10T18:50:45.132Z,21.80
2018-09-10T18:53:13.632Z,21.80
2018-09-10T18:55:42.125Z,21.70
2018-09-10T18:58:10.668Z,21.80
2018-09-10T19:00:39.204Z,21.70
2018-09-10T19:03:07.676Z,21.70
2018-09-10T19:05:36.184Z,21.70
2018-09-10T19:08:04.887Z,21.70
2018-09-10T19:10:33.393Z,21.70
2018-09-10T19:13:01.909Z,21.60
2018-09-10T19:15:30.407Z,21.70
2018-09-10T19:17:59.198Z,21.60
2018-09-10T19:20:27.707Z,21.60
2018-09-10T19:22:56.204Z,21.60
2018-09-10T19:25:24.702Z,21.60
2018-09-10T19:27:53.206Z,21.60
2018-09-10T19:30:21.775Z,21.60
2018-09-10T19:32:50.216Z,21.50
2018-09-10T19:35:18.717Z,21.50
2018-09-10T19:37:47.554Z,21.50
2018-09-10T19:40:16.052Z,21.50
2018-09-10T19:42:44.604Z,21.50
2018-09-10T19:45:13.101Z,21.50
2018-09-10T19:47:41.615Z,21.50
2018-09-10T19:50:10.116Z,21.50
2018-09-10T19:52:39.048Z,21.50
2018-09-10T19:55:07.555Z,21.50
2018-09-10T19:57:36.056Z,21.40
2018-09-10T20:00:04.574Z,21.40
2018-09-10T20:02:33.074Z,21.40
2018-09-10T20:05:01.575Z,21.40
2018-09-10T20:07:30.078Z,21.40
2018-09-10T20:09:58.572Z,21.40
2018-09-10T20:12:27.068Z,21.40
2018-09-10T20:14:55.560Z,21.40
2018-09-10T20:17:24.136Z,21.40
2018-09-10T20:19:52.636Z,21.40
2018-09-10T20:22:21.139Z,21.30
2018-09-10T20:24:49.833Z,21.30
2018-09-10T20:27:18.327Z,21.30
2018-09-10T20:29:46.827Z,21.30
2018-09-10T20:32:15.319Z,21.30
2018-09-10T20:34:43.819Z,21.30
2018-09-10T20:37:12.331Z,21.30
2018-09-10T20:39:40.914Z,21.30
2018-09-10T20:42:09.355Z,21.30
2018-09-10T20:44:37.859Z,21.20
2018-09-10T20:47:07.155Z,21.20
2018-09-10T20:49:35.662Z,21.20
2018-09-10T20:52:04.189Z,21.20
2018-09-10T20:54:32.699Z,21.20
2018-09-10T20:57:01.203Z,21.20
2018-09-10T20:59:29.754Z,21.20
2018-09-10T21:01:58.226Z,21.20
2018-09-10T21:04:26.724Z,21.20
2018-09-10T21:06:55.224Z,21.10
2018-09-10T21:09:23.720Z,21.10
2018-09-10T21:11:52.232Z,21.10
2018-09-10T21:14:20.727Z,21.10
2018-09-10T21:16:49.231Z,21.10
2018-09-10T21:19:17.740Z,21.10
2018-09-10T21:21:46.259Z,21.10
2018-09-10T21:24:14.751Z,21.10
2018-09-10T21:26:43.254Z,21.10
2018-09-10T21:29:11.947Z,21.10
2018-09-10T21:31:40.436Z,21.10
2018-09-10T21:34:08.959Z,21.10
2018-09-10T21:36:37.471Z,21.10
2018-09-10T21:39:07.583Z,21.00
2018-09-10T21:41:36.595Z,21.00
2018-09-10T21:44:05.106Z,21.00
2018-09-10T21:46:33.617Z,21.00
2018-09-10T21:49:02.348Z,21.00
2018-09-10T21:51:30.859Z,21.00
2018-09-10T21:53:59.419Z,21.00
2018-09-10T21:56:28.027Z,21.00
2018-09-10T21:58:56.522Z,20.90
2018-09-10T22:01:25.021Z,21.00
2018-09-10T22:03:53.515Z,21.00
2018-09-10T22:06:22.016Z,20.90
2018-09-10T22:08:50.510Z,20.90
2018-09-10T22:11:19.004Z,20.90
2018-09-10T22:13:47.495Z,20.90
2018-09-10T22:16:16.010Z,20.90
2018-09-10T22:18:44.507Z,20.90
2018-09-10T22:21:13.012Z,20.90
2018-09-10T22:23:41.520Z,20.90
2018-09-10T22:26:10.027Z,20.90
2018-09-10T22:28:38.511Z,20.80
2018-09-10T22:31:07.011Z,20.80
2018-09-10T22:33:35.508Z,20.80
2018-09-10T22:36:04.051Z,20.80
2018-09-10T22:38:32.557Z,20.80
2018-09-10T22:41:01.054Z,20.80
2018-09-10T22:43:29.551Z,20.80
2018-09-10T22:45:58.047Z,20.80
2018-09-10T22:48:26.544Z,20.80
2018-09-10T22:50:55.029Z,20.80
2018-09-10T22:53:23.587Z,20.80
2018-09-10T22:55:52.096Z,20.80
2018-09-10T22:58:20.603Z,20.80
2018-09-10T23:00:49.104Z,20.70
2018-09-10T23:03:17.603Z,20.70
2018-09-10T23:05:46.097Z,20.70
2018-09-10T23:08:14.591Z,20.70
2018-09-10T23:10:43.111Z,20.70
2018-09-10T23:13:11.615Z,20.70
2018-09-10T23:15:40.111Z,20.70
2018-09-10T23:18:08.620Z,20.70
2018-09-10T23:20:37.130Z,20.70
2018-09-10T23:23:05.943Z,20.70
2018-09-10T23:25:34.449Z,20.60
2018-09-10T23:28:02.949Z,20.60
2018-09-10T23:30:31.502Z,20.60
2018-09-10T23:33:00.003Z,20.60
2018-09-10T23:35:28.511Z,20.60
2018-09-10T23:37:57.017Z,20.60
2018-09-10T23:40:25.519Z,20.60
2018-09-10T23:42:54.032Z,20.60
2018-09-10T23:45:22.539Z,20.60
2018-09-10T23:47:51.051Z,20.60
2018-09-10T23:50:19.540Z,20.60
2018-09-10T23:52:48.035Z,20.50
2018-09-10T23:55:16.528Z,20.50
2018-09-10T23:57:45.021Z,20.50
